createdAt,value
2018-08-03T00:01:34.180Z,101409.03
2018-08-03T00:04:03.615Z,101410.34
2018-08-03T00:06:33.562Z,101414.09
2018-08-03T00:09:03.070Z,101410.25
2018-08-03T00:11:33.775Z,101408.73
2018-08-03T00:14:03.114Z,101408.28
2018-08-03T00:16:33.180Z,101405.05
2018-08-03T00:19:02.726Z,101407.84
2018-08-03T00:21:32.692Z,101409.09
2018-08-03T00:24:01.924Z,101402.22
2018-08-03T00:26:31.188Z,101406.18
2018-08-03T00:29:00.300Z,101400.77
2018-08-03T00:31:30.475Z,101404.19
2018-08-03T00:33:59.539Z,101402.52
2018-08-03T00:36:29.099Z,101403.14
2018-08-03T00:38:58.772Z,101398.97
2018-08-03T00:41:28.442Z,101408.16
2018-08-03T00:43:57.411Z,101404.52
2018-08-03T00:46:26.613Z,101406.27
2018-08-03T00:48:55.749Z,101407.59
2018-08-03T00:51:24.875Z,101405.27
2018-08-03T00:53:54.117Z,101407.67
2018-08-03T00:56:24.253Z,101402.80
2018-08-03T00:58:54.314Z,101406.44
2018-08-03T01:01:24.661Z,101403.77
2018-08-03T01:03:54.178Z,101409.14
2018-08-03T01:06:23.902Z,101411.66
2018-08-03T01:08:53.230Z,101412.77
2018-08-03T01:11:22.754Z,101413.52
2018-08-03T01:13:52.743Z,101415.83
2018-08-03T01:16:22.123Z,101419.77
2018-08-03T01:18:52.526Z,101415.59
2018-08-03T01:21:22.134Z,101417.64
2018-08-03T01:23:51.465Z,101418.06
2018-08-03T01:26:20.754Z,101418.10
2018-08-03T01:28:51.306Z,101417.59
2018-08-03T01:31:20.728Z,101414.30
2018-08-03T01:33:49.878Z,101414.00
2018-08-03T01:36:21.258Z,101414.17
2018-08-03T01:38:51.040Z,101416.08
2018-08-03T01:41:20.261Z,101412.14
2018-08-03T01:43:49.867Z,101413.55
2018-08-03T01:46:19.442Z,101407.58
2018-08-03T01:48:48.693Z,101406.97
2018-08-03T01:51:18.249Z,101406.69
2018-08-03T01:53:47.334Z,101416.78
2018-08-03T01:56:16.887Z,101417.44
2018-08-03T01:58:46.267Z,101417.53
2018-08-03T02:01:15.747Z,101410.25
2018-08-03T02:03:45.295Z,101411.81
2018-08-03T02:06:14.510Z,101424.84
2018-08-03T02:08:43.992Z,101415.20
2018-08-03T02:11:13.488Z,101413.28
2018-08-03T02:13:42.604Z,101414.35
2018-08-03T02:16:11.918Z,101412.52
2018-08-03T02:18:40.962Z,101408.78
2018-08-03T02:21:10.904Z,101405.95
2018-08-03T02:23:40.330Z,101414.92
2018-08-03T02:26:09.862Z,101410.92
2018-08-03T02:28:40.046Z,101407.00
2018-08-03T02:31:09.323Z,101418.70
2018-08-03T02:33:38.375Z,101414.98
2018-08-03T02:36:07.494Z,101411.33
2018-08-03T02:38:36.842Z,101409.97
2018-08-03T02:41:06.969Z,101413.47
2018-08-03T02:43:36.203Z,101412.33
2018-08-03T02:46:05.363Z,101416.44
2018-08-03T02:48:34.615Z,101419.85
2018-08-03T02:51:03.715Z,101429.66
2018-08-03T02:53:32.789Z,101425.83
2018-08-03T02:56:02.331Z,101424.94
2018-08-03T02:58:31.829Z,101423.95
2018-08-03T03:01:01.336Z,101424.61
2018-08-03T03:03:30.423Z,101420.15
2018-08-03T03:06:00.050Z,101426.89
2018-08-03T03:08:29.259Z,101429.38
2018-08-03T03:10:58.690Z,101430.42
2018-08-03T03:13:28.223Z,101437.67
2018-08-03T03:15:57.178Z,101436.44
2018-08-03T03:18:26.906Z,101437.92
2018-08-03T03:20:57.479Z,101439.13
2018-08-03T03:23:26.855Z,101441.23
2018-08-03T03:25:55.963Z,101438.56
2018-08-03T03:28:24.928Z,101438.40
2018-08-03T03:30:54.804Z,101434.72
2018-08-03T03:33:24.190Z,101437.88
2018-08-03T03:35:53.095Z,101438.33
2018-08-03T03:38:22.259Z,101437.56
2018-08-03T03:40:51.369Z,101435.71
2018-08-03T03:43:21.254Z,101436.45
2018-08-03T03:45:50.778Z,101445.22
2018-08-03T03:48:19.879Z,101451.03
2018-08-03T03:50:49.319Z,101451.07
2018-08-03T03:53:18.436Z,101449.97
2018-08-03T03:55:48.158Z,101445.68
2018-08-03T03:58:17.256Z,101441.56
2018-08-03T04:00:46.366Z,101441.91
2018-08-03T04:03:15.874Z,101445.89
2018-08-03T04:05:45.426Z,101439.56
2018-08-03T04:08:14.656Z,101442.63
2018-08-03T04:10:44.171Z,101438.36
2018-08-03T04:13:13.731Z,101442.55
2018-08-03T04:15:43.023Z,101441.94
2018-08-03T04:18:18.267Z,101437.58
2018-08-03T04:20:47.527Z,101437.67
2018-08-03T04:23:17.766Z,101449.38
2018-08-03T04:25:47.100Z,101445.44
2018-08-03T04:28:16.982Z,101447.45
2018-08-03T04:30:46.203Z,101444.31
2018-08-03T04:33:15.425Z,101445.39
2018-08-03T04:35:44.463Z,101445.07
2018-08-03T04:38:14.277Z,101443.77
2018-08-03T04:40:43.771Z,101457.17
2018-08-03T04:43:13.577Z,101443.70
2018-08-03T04:45:43.390Z,101448.73
2018-08-03T04:48:12.410Z,101450.72
2018-08-03T04:50:42.044Z,101449.89
2018-08-03T04:53:11.268Z,101444.57
2018-08-03T04:55:40.946Z,101443.91
2018-08-03T04:58:10.435Z,101448.05
2018-08-03T05:00:39.862Z,101450.55
2018-08-03T05:03:09.944Z,101451.45
2018-08-03T05:05:39.456Z,101451.48
2018-08-03T05:08:08.753Z,101453.31
2018-08-03T05:10:38.904Z,101456.38
2018-08-03T05:13:08.776Z,101455.73
2018-08-03T05:15:38.461Z,101460.30
2018-08-03T05:18:08.231Z,101456.90
2018-08-03T05:20:38.028Z,101457.28
2018-08-03T05:23:08.054Z,101460.70
2018-08-03T05:25:37.087Z,101464.43
2018-08-03T05:28:06.378Z,101459.70
2018-08-03T05:30:35.507Z,101460.26
2018-08-03T05:33:05.069Z,101460.92
2018-08-03T05:35:34.446Z,101458.14
2018-08-03T05:38:03.437Z,101461.42
2018-08-03T05:40:32.881Z,101458.09
2018-08-03T05:43:02.491Z,101459.48
2018-08-03T05:45:31.957Z,101452.01
2018-08-03T05:48:01.472Z,101444.33
2018-08-03T05:50:31.558Z,101451.86
2018-08-03T05:53:01.167Z,101450.09
2018-08-03T05:55:30.542Z,101448.89
2018-08-03T05:57:59.654Z,101456.50
2018-08-03T06:00:29.174Z,101452.29
2018-08-03T06:02:58.674Z,101456.97
2018-08-03T06:05:27.647Z,101460.87
2018-08-03T06:07:56.685Z,101455.72
2018-08-03T06:10:25.684Z,101463.09
2018-08-03T06:12:54.627Z,101457.32
2018-08-03T06:15:23.638Z,101454.76
2018-08-03T06:17:52.599Z,101461.97
2018-08-03T06:20:21.547Z,101468.29
2018-08-03T06:22:50.798Z,101464.32
2018-08-03T06:25:19.933Z,101466.48
2018-08-03T06:27:48.882Z,101467.19
2018-08-03T06:30:18.071Z,101463.83
2018-08-03T06:32:47.051Z,101461.84
2018-08-03T06:35:16.272Z,101464.66
2018-08-03T06:37:45.355Z,101461.58
2018-08-03T06:40:14.853Z,101462.55
2018-08-03T06:42:43.886Z,101460.06
2018-08-03T06:45:13.039Z,101467.03
2018-08-03T06:47:42.742Z,101467.87
2018-08-03T06:50:11.695Z,101468.19
2018-08-03T06:52:40.739Z,101468.38
2018-08-03T06:55:09.667Z,101474.50
2018-08-03T06:57:38.772Z,101468.95
2018-08-03T07:00:08.171Z,101469.60
2018-08-03T07:02:37.590Z,101460.10
2018-08-03T07:05:06.547Z,101468.30
2018-08-03T07:07:35.439Z,101464.71
2018-08-03T07:10:04.583Z,101466.68
2018-08-03T07:12:33.526Z,101464.81
2018-08-03T07:15:02.442Z,101463.56
2018-08-03T07:17:31.383Z,101470.44
2018-08-03T07:20:01.092Z,101458.82
2018-08-03T07:22:29.926Z,101452.50
2018-08-03T07:24:58.926Z,101462.81
2018-08-03T07:27:27.894Z,101453.73
2018-08-03T07:29:57.041Z,101454.38
2018-08-03T07:32:26.104Z,101453.83
2018-08-03T07:34:55.052Z,101452.08
2018-08-03T07:37:24.303Z,101453.66
2018-08-03T07:39:53.244Z,101450.64
2018-08-03T07:42:22.294Z,101453.91
2018-08-03T07:44:51.351Z,101448.80
2018-08-03T07:47:20.290Z,101448.67
2018-08-03T07:49:49.322Z,101446.31
2018-08-03T07:52:18.422Z,101443.00
2018-08-03T07:54:47.560Z,101448.84
2018-08-03T07:57:16.571Z,101437.84
2018-08-03T07:59:45.687Z,101451.31
2018-08-03T08:02:14.659Z,101441.94
2018-08-03T08:04:43.583Z,101438.27
2018-08-03T08:07:12.572Z,101434.45
2018-08-03T08:09:41.671Z,101444.14
2018-08-03T08:12:10.775Z,101438.11
2018-08-03T08:14:39.792Z,101433.16
2018-08-03T08:17:08.725Z,101438.48
2018-08-03T08:19:37.651Z,101434.42
2018-08-03T08:22:06.716Z,101438.91
2018-08-03T08:24:35.677Z,101432.30
2018-08-03T08:27:04.822Z,101432.97
2018-08-03T08:29:33.794Z,101432.30
2018-08-03T08:32:02.898Z,101426.95
2018-08-03T08:34:32.666Z,101429.26
2018-08-03T08:37:01.721Z,101431.34
2018-08-03T08:39:30.655Z,101425.70
2018-08-03T08:41:59.614Z,101425.38
2018-08-03T08:44:28.604Z,101417.89
2018-08-03T08:46:57.631Z,101420.31
2018-08-03T08:49:26.909Z,101412.39
2018-08-03T08:51:55.853Z,101411.49
2018-08-03T08:54:24.999Z,101406.67
2018-08-03T08:56:53.993Z,101395.17
2018-08-03T08:59:23.038Z,101392.34
2018-08-03T09:01:52.019Z,101385.28
2018-08-03T09:04:21.244Z,101385.98
2018-08-03T09:06:50.176Z,101389.94
2018-08-03T09:09:19.271Z,101390.88
2018-08-03T09:11:48.239Z,101383.19
2018-08-03T09:14:17.294Z,101381.72
2018-08-03T09:16:46.321Z,101373.66
2018-08-03T09:19:15.286Z,101376.30
2018-08-03T09:21:44.304Z,101382.73
2018-08-03T09:24:13.331Z,101381.98
2018-08-03T09:26:42.295Z,101381.45
2018-08-03T09:29:11.230Z,101352.24
2018-08-03T09:31:40.267Z,101376.63
2018-08-03T09:34:09.224Z,101370.55
2018-08-03T09:36:38.478Z,101371.28
2018-08-03T09:39:08.415Z,101368.98
2018-08-03T09:41:37.463Z,101367.61
2018-08-03T09:44:06.821Z,101365.50
2018-08-03T09:46:35.877Z,101363.41
2018-08-03T09:49:04.860Z,101358.02
2018-08-03T09:51:33.778Z,101348.31
2018-08-03T09:54:03.302Z,101347.01
2018-08-03T09:56:32.231Z,101350.84
2018-08-03T09:59:01.340Z,101339.30
2018-08-03T10:01:30.749Z,101345.19
2018-08-03T10:03:59.703Z,101342.23
2018-08-03T10:06:28.840Z,101331.36
2018-08-03T10:08:57.930Z,101324.16
2018-08-03T10:11:26.873Z,101328.85
2018-08-03T10:13:55.846Z,101317.91
2018-08-03T10:16:25.302Z,101309.35
2018-08-03T10:18:54.689Z,101306.33
2018-08-03T10:21:23.683Z,101308.50
2018-08-03T10:23:52.654Z,101308.03
2018-08-03T10:26:21.619Z,101309.91
2018-08-03T10:28:50.579Z,101298.43
2018-08-03T10:31:19.978Z,101299.88
2018-08-03T10:33:48.975Z,101289.69
2018-08-03T10:36:17.951Z,101291.05
2018-08-03T10:38:46.947Z,101290.30
2018-08-03T10:41:15.942Z,101286.14
2018-08-03T10:43:44.954Z,101285.59
2018-08-03T10:46:14.024Z,101273.33
2018-08-03T10:48:43.124Z,101269.24
2018-08-03T10:51:12.150Z,101264.94
2018-08-03T10:53:41.152Z,101261.08
2018-08-03T10:56:10.816Z,101266.44
2018-08-03T10:58:39.716Z,101257.77
2018-08-03T11:01:08.710Z,101260.09
2018-08-03T11:03:37.652Z,101263.09
2018-08-03T11:06:06.599Z,101258.99
2018-08-03T11:08:35.750Z,101260.91
2018-08-03T11:11:04.675Z,101251.77
2018-08-03T11:13:33.856Z,101249.25
2018-08-03T11:16:02.771Z,101250.99
2018-08-03T11:18:31.702Z,101248.34
2018-08-03T11:21:00.694Z,101250.52
2018-08-03T11:23:29.671Z,101247.72
2018-08-03T11:25:58.740Z,101250.57
2018-08-03T11:28:27.794Z,101236.02
2018-08-03T11:30:56.896Z,101237.87
2018-08-03T11:33:25.817Z,101233.99
2018-08-03T11:35:54.762Z,101231.58
2018-08-03T11:38:23.697Z,101231.21
2018-08-03T11:40:52.737Z,101236.83
2018-08-03T11:43:21.695Z,101229.81
2018-08-03T11:45:50.785Z,101226.19
2018-08-03T11:48:19.827Z,101220.59
2018-08-03T11:50:48.738Z,101214.83
2018-08-03T11:53:17.794Z,101220.73
2018-08-03T11:55:47.527Z,101219.34
2018-08-03T11:58:16.503Z,101212.94
2018-08-03T12:00:45.664Z,101213.95
2018-08-03T12:03:14.538Z,101211.91
2018-08-03T12:05:43.450Z,101203.50
2018-08-03T12:08:12.499Z,101206.05
2018-08-03T12:10:41.497Z,101195.34
2018-08-03T12:13:10.480Z,101201.25
2018-08-03T12:15:39.618Z,101190.13
2018-08-03T12:18:08.611Z,101187.86
2018-08-03T12:20:37.783Z,101183.10
2018-08-03T12:23:06.777Z,101179.84
2018-08-03T12:25:35.751Z,101178.45
2018-08-03T12:28:04.744Z,101177.11
2018-08-03T12:30:33.639Z,101175.06
2018-08-03T12:33:02.742Z,101170.55
2018-08-03T12:35:31.743Z,101170.78
2018-08-03T12:38:00.926Z,101165.89
2018-08-03T12:40:29.883Z,101164.74
2018-08-03T12:42:58.920Z,101167.23
2018-08-03T12:45:33.993Z,101154.39
2018-08-03T12:47:56.885Z,101152.75
2018-08-03T12:50:25.867Z,101146.18
2018-08-03T12:52:55.001Z,101141.63
2018-08-03T12:55:24.782Z,101147.93
2018-08-03T12:57:53.687Z,101146.69
2018-08-03T13:00:22.847Z,101138.30
2018-08-03T13:02:51.799Z,101136.90
2018-08-03T13:05:20.753Z,101136.19
2018-08-03T13:07:49.791Z,101142.05
2018-08-03T13:10:18.679Z,101134.63
2018-08-03T13:12:48.691Z,101128.72
2018-08-03T13:15:17.674Z,101129.38
2018-08-03T13:17:46.787Z,101119.22
2018-08-03T13:20:15.735Z,101127.19
2018-08-03T13:22:45.124Z,101118.11
2018-08-03T13:25:14.109Z,101115.09
2018-08-03T13:27:43.068Z,101111.41
2018-08-03T13:30:12.590Z,101106.45
2018-08-03T13:32:42.141Z,101109.99
2018-08-03T13:35:11.194Z,101105.20
2018-08-03T13:37:40.187Z,101105.79
2018-08-03T13:40:09.154Z,101095.66
2018-08-03T13:42:38.141Z,101095.38
2018-08-03T13:45:07.236Z,101091.56
2018-08-03T13:47:36.350Z,101088.20
2018-08-03T13:50:05.547Z,101086.06
2018-08-03T13:52:34.550Z,101081.58
2018-08-03T13:55:04.351Z,101074.80
2018-08-03T13:57:33.384Z,101072.42
2018-08-03T14:00:02.321Z,101072.01
2018-08-03T14:02:31.282Z,101064.42
2018-08-03T14:05:00.285Z,101063.58
2018-08-03T14:07:29.271Z,101062.02
2018-08-03T14:09:58.314Z,101061.55
2018-08-03T14:12:27.318Z,101055.09
2018-08-03T14:14:56.459Z,101050.28
2018-08-03T14:17:25.407Z,101051.77
2018-08-03T14:19:54.387Z,101053.13
2018-08-03T14:22:23.370Z,101050.45
2018-08-03T14:24:52.430Z,101041.22
2018-08-03T14:27:21.431Z,101044.33
2018-08-03T14:29:50.781Z,101036.39
2018-08-03T14:32:19.794Z,101038.27
2018-08-03T14:34:48.759Z,101029.70
2018-08-03T14:37:17.738Z,101022.80
2018-08-03T14:39:46.794Z,101033.36
2018-08-03T14:42:15.734Z,101026.01
2018-08-03T14:44:45.319Z,101022.63
2018-08-03T14:47:14.335Z,101025.03
2018-08-03T14:49:43.767Z,101017.38
2018-08-03T14:52:12.745Z,101016.40
2018-08-03T14:54:41.819Z,101013.49
2018-08-03T14:57:10.838Z,101014.57
2018-08-03T14:59:40.575Z,101011.98
2018-08-03T15:02:09.554Z,101009.25
2018-08-03T15:04:38.578Z,101008.30
2018-08-03T15:07:07.622Z,101011.22
2018-08-03T15:09:36.634Z,101006.41
2018-08-03T15:12:05.694Z,101007.08
2018-08-03T15:14:34.635Z,101002.84
2018-08-03T15:17:03.606Z,100996.31
2018-08-03T15:19:32.621Z,100991.55
2018-08-03T15:22:01.618Z,100994.42
2018-08-03T15:24:30.603Z,100991.95
2018-08-03T15:26:59.594Z,100983.07
2018-08-03T15:29:28.554Z,100987.97
2018-08-03T15:31:57.510Z,100982.66
2018-08-03T15:34:26.465Z,100981.52
2018-08-03T15:36:55.900Z,100980.73
2018-08-03T15:39:24.938Z,100979.98
2018-08-03T15:41:54.056Z,100978.16
2018-08-03T15:44:23.009Z,100982.41
2018-08-03T15:46:51.941Z,100974.94
2018-08-03T15:49:20.890Z,100978.94
2018-08-03T15:51:49.839Z,100976.63
2018-08-03T15:54:18.806Z,100971.00
2018-08-03T15:56:47.735Z,100969.38
2018-08-03T15:59:16.721Z,100967.95
2018-08-03T16:01:45.686Z,100964.48
2018-08-03T16:04:15.383Z,100967.44
2018-08-03T16:06:44.416Z,100955.09
2018-08-03T16:09:13.349Z,100959.40
2018-08-03T16:11:42.293Z,100956.91
2018-08-03T16:14:12.025Z,100958.77
2018-08-03T16:16:40.963Z,100954.91
2018-08-03T16:19:09.947Z,100955.02
2018-08-03T16:21:38.964Z,100954.30
2018-08-03T16:24:07.887Z,100947.72
2018-08-03T16:26:36.834Z,100952.58
2018-08-03T16:29:05.791Z,100941.69
2018-08-03T16:31:34.738Z,100913.96
2018-08-03T16:34:03.815Z,100946.85
2018-08-03T16:36:32.762Z,100943.88
2018-08-03T16:39:01.831Z,100939.59
2018-08-03T16:41:30.793Z,100939.91
2018-08-03T16:43:59.761Z,100937.47
2018-08-03T16:46:28.665Z,100935.18
2018-08-03T16:48:58.074Z,100937.44
2018-08-03T16:51:27.270Z,100944.09
2018-08-03T16:53:56.534Z,100935.78
2018-08-03T16:56:25.563Z,100937.80
2018-08-03T16:58:54.519Z,100938.78
2018-08-03T17:01:23.534Z,100929.72
2018-08-03T17:03:52.676Z,100932.72
2018-08-03T17:06:21.641Z,100934.06
2018-08-03T17:08:50.572Z,100933.10
2018-08-03T17:11:19.575Z,100932.08
2018-08-03T17:13:48.660Z,100937.29
2018-08-03T17:16:17.694Z,100932.80
2018-08-03T17:18:46.641Z,100925.20
2018-08-03T17:21:15.810Z,100932.94
2018-08-03T17:23:44.767Z,100927.00
2018-08-03T17:26:13.733Z,100928.90
2018-08-03T17:28:42.655Z,100931.91
2018-08-03T17:31:11.698Z,100928.08
2018-08-03T17:33:40.729Z,100929.48
2018-08-03T17:36:10.303Z,100930.36
2018-08-03T17:38:39.289Z,100927.86
2018-08-03T17:41:08.871Z,100930.88
2018-08-03T17:43:38.435Z,100923.25
2018-08-03T17:46:07.602Z,100926.00
2018-08-03T17:48:36.622Z,100924.38
2018-08-03T17:51:05.676Z,100928.22
2018-08-03T17:53:34.702Z,100929.06
2018-08-03T17:56:03.641Z,100930.99
2018-08-03T17:58:32.761Z,100924.16
2018-08-03T18:01:01.751Z,100925.84
2018-08-03T18:03:30.711Z,100889.39
2018-08-03T18:05:59.865Z,100923.41
2018-08-03T18:08:28.874Z,100932.45
2018-08-03T18:10:58.162Z,100929.18
2018-08-03T18:13:27.115Z,100933.30
2018-08-03T18:15:56.204Z,100928.12
2018-08-03T18:18:25.095Z,100933.05
2018-08-03T18:20:54.059Z,100929.22
2018-08-03T18:23:23.075Z,100935.01
2018-08-03T18:25:52.010Z,100933.08
2018-08-03T18:28:20.952Z,100933.34
2018-08-03T18:30:49.943Z,100935.55
2018-08-03T18:33:18.875Z,100933.91
2018-08-03T18:35:47.847Z,100935.27
2018-08-03T18:38:16.858Z,100936.39
2018-08-03T18:40:45.843Z,100942.70
2018-08-03T18:43:14.805Z,100940.46
2018-08-03T18:45:43.848Z,100938.58
2018-08-03T18:48:12.816Z,100936.08
2018-08-03T18:50:41.758Z,100938.53
2018-08-03T18:53:10.695Z,100942.63
2018-08-03T18:55:39.674Z,100939.88
2018-08-03T18:58:08.622Z,100945.64
2018-08-03T19:00:37.588Z,100944.27
2018-08-03T19:03:06.656Z,100944.54
2018-08-03T19:05:35.601Z,100950.83
2018-08-03T19:08:04.612Z,100952.69
2018-08-03T19:10:34.199Z,100957.83
2018-08-03T19:13:03.566Z,100957.30
2018-08-03T19:15:32.565Z,100964.16
2018-08-03T19:18:01.852Z,100968.78
2018-08-03T19:20:30.819Z,100970.97
2018-08-03T19:22:59.841Z,100966.26
2018-08-03T19:25:28.908Z,100975.30
2018-08-03T19:27:57.806Z,100979.41
2018-08-03T19:30:26.757Z,100982.12
2018-08-03T19:32:55.786Z,100988.12
2018-08-03T19:35:24.701Z,100996.78
2018-08-03T19:37:53.631Z,100991.87
2018-08-03T19:40:22.597Z,101000.28
2018-08-03T19:42:51.610Z,101001.55
2018-08-03T19:45:20.597Z,100998.81
2018-08-03T19:47:56.206Z,101001.83
2018-08-03T19:50:25.191Z,101003.44
2018-08-03T19:52:54.170Z,101005.25
2018-08-03T19:55:23.078Z,100999.24
2018-08-03T19:57:51.986Z,101009.97
2018-08-03T20:00:20.923Z,101008.66
2018-08-03T20:02:50.009Z,101007.50
2018-08-03T20:05:18.954Z,101014.16
2018-08-03T20:07:47.875Z,101010.89
2018-08-03T20:10:16.791Z,101014.80
2018-08-03T20:12:45.763Z,101012.42
2018-08-03T20:15:14.715Z,101006.61
2018-08-03T20:17:43.643Z,101008.22
2018-08-03T20:20:12.663Z,101007.68
2018-08-03T20:22:41.598Z,101008.92
2018-08-03T20:25:10.561Z,101006.16
2018-08-03T20:27:39.543Z,101015.39
2018-08-03T20:30:08.879Z,101011.61
2018-08-03T20:32:37.798Z,101011.09
2018-08-03T20:35:07.290Z,101011.20
2018-08-03T20:37:36.246Z,101019.95
2018-08-03T20:40:06.383Z,101020.50
2018-08-03T20:42:35.332Z,101028.78
2018-08-03T20:45:04.679Z,101032.50
2018-08-03T20:47:33.617Z,101036.25
2018-08-03T20:50:02.557Z,101033.05
2018-08-03T20:52:31.510Z,101030.27
2018-08-03T20:55:00.502Z,101026.23
2018-08-03T20:57:29.470Z,101026.86
2018-08-03T20:59:58.443Z,101026.93
2018-08-03T21:02:27.346Z,101028.74
2018-08-03T21:04:56.255Z,101031.83
2018-08-03T21:07:25.218Z,101039.43
2018-08-03T21:09:54.162Z,101037.30
2018-08-03T21:12:23.110Z,101038.14
2018-08-03T21:14:52.039Z,101035.80
2018-08-03T21:17:21.543Z,101034.64
2018-08-03T21:19:50.523Z,101040.52
2018-08-03T21:22:19.514Z,101038.17
2018-08-03T21:24:48.423Z,101035.37
2018-08-03T21:27:17.361Z,101035.42
2018-08-03T21:29:46.332Z,101035.89
2018-08-03T21:32:15.317Z,101038.81
2018-08-03T21:34:44.225Z,101039.52
2018-08-03T21:37:13.322Z,101038.88
2018-08-03T21:39:42.224Z,101038.64
2018-08-03T21:42:11.378Z,101039.00
2018-08-03T21:44:40.317Z,101044.90
2018-08-03T21:47:09.293Z,101032.59
2018-08-03T21:49:39.015Z,101038.74
2018-08-03T21:52:08.195Z,101046.48
2018-08-03T21:54:37.186Z,101037.52
2018-08-03T21:57:06.249Z,101043.02
2018-08-03T21:59:35.218Z,101040.03
2018-08-03T22:02:04.194Z,101038.31
2018-08-03T22:04:33.115Z,101039.50
2018-08-03T22:07:02.042Z,101038.13
2018-08-03T22:09:30.991Z,101043.41
2018-08-03T22:11:59.963Z,101032.17
2018-08-03T22:14:28.911Z,101030.89
2018-08-03T22:16:57.837Z,101033.94
2018-08-03T22:19:26.845Z,101036.95
2018-08-03T22:21:55.786Z,101032.38
2018-08-03T22:24:24.839Z,101037.02
2018-08-03T22:26:53.795Z,101039.09
2018-08-03T22:29:22.853Z,101039.88
2018-08-03T22:31:51.822Z,101036.79
2018-08-03T22:34:21.292Z,101037.71
2018-08-03T22:36:50.381Z,101042.20
2018-08-03T22:39:20.281Z,101039.48
2018-08-03T22:41:49.601Z,101037.86
2018-08-03T22:44:18.877Z,100992.31
2018-08-03T22:46:47.835Z,101048.12
2018-08-03T22:49:17.651Z,101041.38
2018-08-03T22:51:46.593Z,101046.01
2018-08-03T22:54:16.146Z,101047.28
2018-08-03T22:56:45.714Z,101041.94
2018-08-03T22:59:15.320Z,101045.02
2018-08-03T23:01:44.470Z,101047.44
2018-08-03T23:04:13.666Z,101040.65
2018-08-03T23:06:43.691Z,101040.27
2018-08-03T23:09:12.918Z,101035.92
2018-08-03T23:11:42.391Z,101034.11
2018-08-03T23:14:11.561Z,101032.23
2018-08-03T23:16:41.010Z,101028.81
2018-08-03T23:19:09.938Z,101031.31
2018-08-03T23:21:38.863Z,101025.45
2018-08-03T23:24:08.526Z,101017.77
2018-08-03T23:26:38.308Z,101012.40
2018-08-03T23:29:07.522Z,101012.26
2018-08-03T23:31:36.617Z,101010.75
2018-08-03T23:34:05.711Z,101012.77
2018-08-03T23:36:34.815Z,101006.41
2018-08-03T23:39:05.034Z,101005.13
2018-08-03T23:41:34.210Z,101010.56
2018-08-03T23:44:03.178Z,101009.42
2018-08-03T23:46:32.858Z,101011.02
2018-08-03T23:49:02.137Z,101016.50
2018-08-03T23:51:31.214Z,101022.61
2018-08-03T23:54:01.115Z,101025.48
2018-08-03T23:56:30.251Z,101025.19
2018-08-03T23:58:59.533Z,101022.61
